sensor_id;sensor_type;location;lat;lon;timestamp;pressure;altitude;pressure_sealevel;temperature;humidity
7433;BME280;32233;49.500;7.764;2023-11-19T00:00:07;98312.44;;;7.10;100.00
7433;BME280;32233;49.500;7.764;2023-11-19T00:02:41;98314.28;;;7.09;100.00
7433;BME280;32233;49.500;7.764;2023-11-19T00:05:09;98317.09;;;7.08;100.00
7433;BME280;32233;49.500;7.764;2023-11-19T00:07:39;98322.16;;;7.09;100.00
7433;BME280;32233;49.500;7.764;2023-11-19T00:10:10;98320.16;;;7.11;100.00
7433;BME280;32233;49.500;7.764;2023-11-19T00:12:39;98325.88;;;7.15;100.00
7433;BME280;32233;49.500;7.764;2023-11-19T00:15:06;98319.81;;;7.14;100.00
7433;BME280;32233;49.500;7.764;2023-11-19T00:17:38;98310.94;;;7.15;100.00
7433;BME280;32233;49.500;7.764;2023-11-19T00:20:12;98309.91;;;7.16;100.00
7433;BME280;32233;49.500;7.764;2023-11-19T00:22:39;98307.94;;;7.18;100.00
7433;BME280;32233;49.500;7.764;2023-11-19T00:25:15;98299.03;;;7.19;100.00
7433;BME280;32233;49.500;7.764;2023-11-19T00:27:41;98289.69;;;7.17;100.00
7433;BME280;32233;49.500;7.764;2023-11-19T00:30:11;98295.41;;;7.20;100.00
7433;BME280;32233;49.500;7.764;2023-11-19T00:32:37;98302.84;;;7.17;100.00
7433;BME280;32233;49.500;7.764;2023-11-19T00:35:06;98298.41;;;7.17;100.00
7433;BME280;32233;49.500;7.764;2023-11-19T00:37:33;98297.22;;;7.20;100.00
7433;BME280;32233;49.500;7.764;2023-11-19T00:40:00;98297.03;;;7.22;100.00
7433;BME280;32233;49.500;7.764;2023-11-19T00:42:27;98308.75;;;7.19;100.00
7433;BME280;32233;49.500;7.764;2023-11-19T00:44:53;98301.13;;;7.24;100.00
7433;BME280;32233;49.500;7.764;2023-11-19T00:47:21;98297.69;;;7.24;100.00
7433;BME280;32233;49.500;7.764;2023-11-19T00:49:48;98293.69;;;7.28;100.00
7433;BME280;32233;49.500;7.764;2023-11-19T00:52:19;98289.03;;;7.30;100.00
7433;BME280;32233;49.500;7.764;2023-11-19T00:54:45;98286.63;;;7.28;100.00
7433;BME280;32233;49.500;7.764;2023-11-19T00:57:12;98275.28;;;7.28;100.00
7433;BME280;32233;49.500;7.764;2023-11-19T00:59:41;98272.47;;;7.29;100.00
7433;BME280;32233;49.500;7.764;2023-11-19T01:02:08;98292.69;;;7.29;100.00
7433;BME280;32233;49.500;7.764;2023-11-19T01:04:35;98291.69;;;7.30;100.00
7433;BME280;32233;49.500;7.764;2023-11-19T01:07:03;98288.06;;;7.31;100.00
7433;BME280;32233;49.500;7.764;2023-11-19T01:09:31;98288.06;;;7.31;100.00
7433;BME280;32233;49.500;7.764;2023-11-19T01:11:58;98288.22;;;7.29;100.00
7433;BME280;32233;49.500;7.764;2023-11-19T01:14:27;98301.63;;;7.34;100.00
7433;BME280;32233;49.500;7.764;2023-11-19T01:16:54;98304.09;;;7.36;100.00
7433;BME280;32233;49.500;7.764;2023-11-19T01:19:21;98298.03;;;7.35;100.00
7433;BME280;32233;49.500;7.764;2023-11-19T01:21:49;98293.03;;;7.40;100.00
7433;BME280;32233;49.500;7.764;2023-11-19T01:24:16;98276.00;;;7.36;100.00
7433;BME280;32233;49.500;7.764;2023-11-19T01:26:43;98283.53;;;7.39;100.00
7433;BME280;32233;49.500;7.764;2023-11-19T01:29:12;98279.69;;;7.42;100.00
7433;BME280;32233;49.500;7.764;2023-11-19T01:31:43;98280.69;;;7.41;100.00
7433;BME280;32233;49.500;7.764;2023-11-19T01:34:10;98272.44;;;7.44;100.00
7433;BME280;32233;49.500;7.764;2023-11-19T01:36:37;98272.25;;;7.45;100.00
7433;BME280;32233;49.500;7.764;2023-11-19T01:39:03;98267.44;;;7.49;100.00
7433;BME280;32233;49.500;7.764;2023-11-19T01:41:37;98269.69;;;7.52;100.00
7433;BME280;32233;49.500;7.764;2023-11-19T01:44:08;98265.25;;;7.53;100.00
7433;BME280;32233;49.500;7.764;2023-11-19T01:46:35;98259.97;;;7.53;100.00
7433;BME280;32233;49.500;7.764;2023-11-19T01:49:02;98243.19;;;7.54;100.00
7433;BME280;32233;49.500;7.764;2023-11-19T01:51:30;98238.13;;;7.52;100.00
7433;BME280;32233;49.500;7.764;2023-11-19T01:53:57;98251.09;;;7.54;100.00
7433;BME280;32233;49.500;7.764;2023-11-19T01:56:25;98243.03;;;7.55;100.00
7433;BME280;32233;49.500;7.764;2023-11-19T01:58:54;98240.41;;;7.55;100.00
7433;BME280;32233;49.500;7.764;2023-11-19T02:01:21;98228.22;;;7.54;100.00
7433;BME280;32233;49.500;7.764;2023-11-19T02:03:48;98222.78;;;7.56;100.00
7433;BME280;32233;49.500;7.764;2023-11-19T02:06:15;98227.63;;;7.52;100.00
7433;BME280;32233;49.500;7.764;2023-11-19T02:08:43;98223.03;;;7.61;100.00
7433;BME280;32233;49.500;7.764;2023-11-19T02:11:10;98225.75;;;7.67;100.00
7433;BME280;32233;49.500;7.764;2023-11-19T02:13:39;98236.06;;;7.69;100.00
7433;BME280;32233;49.500;7.764;2023-11-19T02:16:07;98226.56;;;7.68;100.00
7433;BME280;32233;49.500;7.764;2023-11-19T02:18:37;98224.97;;;7.74;100.00
7433;BME280;32233;49.500;7.764;2023-11-19T02:21:05;98213.28;;;7.76;100.00
7433;BME280;32233;49.500;7.764;2023-11-19T02:23:32;98210.22;;;7.73;100.00
7433;BME280;32233;49.500;7.764;2023-11-19T02:28:50;98204.75;;;7.74;100.00
7433;BME280;32233;49.500;7.764;2023-11-19T02:31:16;98209.63;;;7.77;100.00
7433;BME280;32233;49.500;7.764;2023-11-19T02:33:43;98204.97;;;7.79;100.00
7433;BME280;32233;49.500;7.764;2023-11-19T02:36:10;98196.91;;;7.81;100.00
7433;BME280;32233;49.500;7.764;2023-11-19T02:38:37;98197.72;;;7.81;100.00
7433;BME280;32233;49.500;7.764;2023-11-19T02:41:04;98197.72;;;7.81;100.00
7433;BME280;32233;49.500;7.764;2023-11-19T02:43:32;98194.91;;;7.83;100.00
7433;BME280;32233;49.500;7.764;2023-11-19T02:46:03;98192.53;;;7.88;100.00
7433;BME280;32233;49.500;7.764;2023-11-19T02:48:36;98185.03;;;7.91;100.00
7433;BME280;32233;49.500;7.764;2023-11-19T02:51:04;98184.22;;;7.91;100.00
7433;BME280;32233;49.500;7.764;2023-11-19T02:53:31;98176.16;;;7.92;100.00
7433;BME280;32233;49.500;7.764;2023-11-19T02:55:58;98176.97;;;7.93;100.00
7433;BME280;32233;49.500;7.764;2023-11-19T02:58:33;98179.03;;;7.98;100.00
7433;BME280;32233;49.500;7.764;2023-11-19T03:01:00;98178.84;;;7.99;100.00
7433;BME280;32233;49.500;7.764;2023-11-19T03:03:36;98177.00;;;8.00;100.00
7433;BME280;32233;49.500;7.764;2023-11-19T03:06:07;98178.91;;;8.06;100.00
7433;BME280;32233;49.500;7.764;2023-11-19T03:08:36;98180.34;;;8.08;100.00
7433;BME280;32233;49.500;7.764;2023-11-19T03:11:02;98170.41;;;8.10;100.00
7433;BME280;32233;49.500;7.764;2023-11-19T03:13:31;98164.94;;;8.12;100.00
7433;BME280;32233;49.500;7.764;2023-11-19T03:15:57;98156.44;;;8.10;100.00
7433;BME280;32233;49.500;7.764;2023-11-19T03:18:24;98159.31;;;8.15;100.00
7433;BME280;32233;49.500;7.764;2023-11-19T03:20:52;98157.75;;;8.21;100.00
7433;BME280;32233;49.500;7.764;2023-11-19T03:23:18;98163.00;;;8.21;100.00
7433;BME280;32233;49.500;7.764;2023-11-19T03:25:45;98160.41;;;8.27;100.00
7433;BME280;32233;49.500;7.764;2023-11-19T03:28:11;98156.94;;;8.27;100.00
7433;BME280;32233;49.500;7.764;2023-11-19T03:30:38;98153.94;;;8.30;100.00
7433;BME280;32233;49.500;7.764;2023-11-19T03:33:05;98154.97;;;8.35;100.00
7433;BME280;32233;49.500;7.764;2023-11-19T03:35:31;98141.25;;;8.40;100.00
7433;BME280;32233;49.500;7.764;2023-11-19T03:37:59;98143.13;;;8.46;100.00
7433;BME280;32233;49.500;7.764;2023-11-19T03:40:28;98141.28;;;8.47;100.00
7433;BME280;32233;49.500;7.764;2023-11-19T03:42:58;98140.91;;;8.50;100.00
7433;BME280;32233;49.500;7.764;2023-11-19T03:45:25;98143.75;;;8.55;100.00
7433;BME280;32233;49.500;7.764;2023-11-19T03:47:51;98151.47;;;8.56;100.00
7433;BME280;32233;49.500;7.764;2023-11-19T03:50:18;98160.19;;;8.57;100.00
7433;BME280;32233;49.500;7.764;2023-11-19T03:52:47;98155.34;;;8.60;100.00
7433;BME280;32233;49.500;7.764;2023-11-19T03:55:14;98161.63;;;8.59;100.00
7433;BME280;32233;49.500;7.764;2023-11-19T03:57:40;98160.22;;;8.63;100.00
7433;BME280;32233;49.500;7.764;2023-11-19T04:00:07;98163.50;;;8.65;100.00
7433;BME280;32233;49.500;7.764;2023-11-19T04:02:40;98150.72;;;8.69;100.00
7433;BME280;32233;49.500;7.764;2023-11-19T04:05:07;98144.44;;;8.70;100.00
7433;BME280;32233;49.500;7.764;2023-11-19T04:07:33;98147.50;;;8.74;100.00
7433;BME280;32233;49.500;7.764;2023-11-19T04:10:00;98145.28;;;8.77;100.00
7433;BME280;32233;49.500;7.764;2023-11-19T04:12:27;98151.56;;;8.76;100.00
7433;BME280;32233;49.500;7.764;2023-11-19T04:14:53;98153.00;;;8.85;100.00
7433;BME280;32233;49.500;7.764;2023-11-19T04:17:23;98152.44;;;8.90;100.00
7433;BME280;32233;49.500;7.764;2023-11-19T04:19:49;98156.06;;;8.89;100.00
7433;BME280;32233;49.500;7.764;2023-11-19T04:22:16;98149.16;;;8.88;100.00
7433;BME280;32233;49.500;7.764;2023-11-19T04:24:44;98144.53;;;8.90;100.00
7433;BME280;32233;49.500;7.764;2023-11-19T04:27:12;98146.97;;;8.91;100.00
7433;BME280;32233;49.500;7.764;2023-11-19T04:29:39;98145.75;;;8.94;100.00
7433;BME280;32233;49.500;7.764;2023-11-19T04:32:06;98150.00;;;8.95;100.00
7433;BME280;32233;49.500;7.764;2023-11-19T04:34:32;98143.94;;;8.95;100.00
7433;BME280;32233;49.500;7.764;2023-11-19T04:36:59;98149.81;;;8.97;100.00
7433;BME280;32233;49.500;7.764;2023-11-19T04:39:32;98140.50;;;9.01;100.00
7433;BME280;32233;49.500;7.764;2023-11-19T04:41:59;98135.25;;;9.07;100.00
7433;BME280;32233;49.500;7.764;2023-11-19T04:44:25;98143.97;;;9.08;100.00
7433;BME280;32233;49.500;7.764;2023-11-19T04:46:52;98135.44;;;9.06;100.00
7433;BME280;32233;49.500;7.764;2023-11-19T04:49:19;98133.41;;;9.08;100.00
7433;BME280;32233;49.500;7.764;2023-11-19T04:51:45;98131.38;;;9.10;100.00
7433;BME280;32233;49.500;7.764;2023-11-19T04:54:15;98137.06;;;9.13;100.00
7433;BME280;32233;49.500;7.764;2023-11-19T04:56:45;98139.31;;;9.16;100.00
7433;BME280;32233;49.500;7.764;2023-11-19T04:59:12;98136.88;;;9.22;100.00
7433;BME280;32233;49.500;7.764;2023-11-19T05:01:39;98137.50;;;9.24;100.00
7433;BME280;32233;49.500;7.764;2023-11-19T05:04:07;98134.66;;;9.25;100.00
7433;BME280;32233;49.500;7.764;2023-11-19T05:06:34;98133.66;;;9.26;100.00
7433;BME280;32233;49.500;7.764;2023-11-19T05:09:02;98139.75;;;9.27;100.00
7433;BME280;32233;49.500;7.764;2023-11-19T05:11:33;98131.63;;;9.28;100.00
7433;BME280;32233;49.500;7.764;2023-11-19T05:14:02;98131.63;;;9.28;100.00
7433;BME280;32233;49.500;7.764;2023-11-19T05:16:31;98138.94;;;9.33;100.00
7433;BME280;32233;49.500;7.764;2023-11-19T05:18:57;98138.34;;;9.31;100.00
7433;BME280;32233;49.500;7.764;2023-11-19T05:21:24;98141.59;;;9.33;100.00
7433;BME280;32233;49.500;7.764;2023-11-19T05:23:50;98137.31;;;9.38;100.00
7433;BME280;32233;49.500;7.764;2023-11-19T05:26:18;98128.41;;;9.39;100.00
7433;BME280;32233;49.500;7.764;2023-11-19T05:28:45;98120.06;;;9.42;100.00
7433;BME280;32233;49.500;7.764;2023-11-19T05:31:12;98119.09;;;9.43;100.00
7433;BME280;32233;49.500;7.764;2023-11-19T05:33:39;98123.56;;;9.43;100.00
7433;BME280;32233;49.500;7.764;2023-11-19T05:36:06;98114.59;;;9.51;100.00
7433;BME280;32233;49.500;7.764;2023-11-19T05:38:35;98112.81;;;9.51;100.00
7433;BME280;32233;49.500;7.764;2023-11-19T05:41:03;98115.63;;;9.56;100.00
7433;BME280;32233;49.500;7.764;2023-11-19T05:43:29;98131.88;;;9.60;100.00
7433;BME280;32233;49.500;7.764;2023-11-19T05:45:56;98124.75;;;9.67;100.00
7433;BME280;32233;49.500;7.764;2023-11-19T05:48:25;98130.44;;;9.71;100.00
7433;BME280;32233;49.500;7.764;2023-11-19T05:50:52;98130.25;;;9.72;100.00
7433;BME280;32233;49.500;7.764;2023-11-19T05:53:19;98132.91;;;9.72;100.00
7433;BME280;32233;49.500;7.764;2023-11-19T05:55:46;98133.50;;;9.74;100.00
7433;BME280;32233;49.500;7.764;2023-11-19T05:58:25;98132.47;;;9.75;100.00
7433;BME280;32233;49.500;7.764;2023-11-19T06:00:58;98139.19;;;9.78;100.00
7433;BME280;32233;49.500;7.764;2023-11-19T06:03:27;98142.44;;;9.80;100.00
7433;BME280;32233;49.500;7.764;2023-11-19T06:05:54;98144.66;;;9.76;100.00
7433;BME280;32233;49.500;7.764;2023-11-19T06:08:21;98151.16;;;9.80;100.00
7433;BME280;32233;49.500;7.764;2023-11-19T06:10:47;98156.22;;;9.82;100.00
7433;BME280;32233;49.500;7.764;2023-11-19T06:13:16;98153.59;;;9.82;100.00
7433;BME280;32233;49.500;7.764;2023-11-19T06:15:43;98150.56;;;9.85;100.00
7433;BME280;32233;49.500;7.764;2023-11-19T06:18:10;98154.59;;;9.87;100.00
7433;BME280;32233;49.500;7.764;2023-11-19T06:20:40;98152.78;;;9.95;100.00
7433;BME280;32233;49.500;7.764;2023-11-19T06:23:09;98151.97;;;9.94;100.00
7433;BME280;32233;49.500;7.764;2023-11-19T06:25:36;98152.78;;;9.95;100.00
7433;BME280;32233;49.500;7.764;2023-11-19T06:28:03;98153.41;;;9.97;100.00
7433;BME280;32233;49.500;7.764;2023-11-19T06:30:30;98158.47;;;9.98;100.00
7433;BME280;32233;49.500;7.764;2023-11-19T06:32:59;98165.75;;;10.03;100.00
7433;BME280;32233;49.500;7.764;2023-11-19T06:35:26;98166.38;;;10.05;100.00
7433;BME280;32233;49.500;7.764;2023-11-19T06:37:55;98175.13;;;10.05;100.00
7433;BME280;32233;49.500;7.764;2023-11-19T06:40:22;98172.09;;;10.08;100.00
7433;BME280;32233;49.500;7.764;2023-11-19T06:42:49;98169.81;;;10.12;100.00
7433;BME280;32233;49.500;7.764;2023-11-19T06:45:15;98176.34;;;10.09;100.00
7433;BME280;32233;49.500;7.764;2023-11-19T06:47:42;98181.63;;;10.09;100.00
7433;BME280;32233;49.500;7.764;2023-11-19T06:50:08;98174.69;;;10.15;100.00
7433;BME280;32233;49.500;7.764;2023-11-19T06:52:35;98164.34;;;10.13;100.00
7433;BME280;32233;49.500;7.764;2023-11-19T06:55:04;98177.94;;;10.10;100.00
7433;BME280;32233;49.500;7.764;2023-11-19T06:57:34;98176.94;;;10.11;100.00
7433;BME280;32233;49.500;7.764;2023-11-19T07:00:01;98174.69;;;10.15;100.00
7433;BME280;32233;49.500;7.764;2023-11-19T07:02:28;98187.09;;;10.14;100.00
7433;BME280;32233;49.500;7.764;2023-11-19T07:04:55;98187.91;;;10.15;100.00
7433;BME280;32233;49.500;7.764;2023-11-19T07:07:21;98181.41;;;10.17;100.00
7433;BME280;32233;49.500;7.764;2023-11-19T07:09:48;98189.13;;;10.19;100.00
7433;BME280;32233;49.500;7.764;2023-11-19T07:12:15;98182.63;;;10.22;100.00
7433;BME280;32233;49.500;7.764;2023-11-19T07:14:42;98190.19;;;10.25;100.00
7433;BME280;32233;49.500;7.764;2023-11-19T07:17:08;98181.75;;;10.61;100.00
7433;BME280;32233;49.500;7.764;2023-11-19T07:19:37;98189.53;;;10.43;100.00
7433;BME280;32233;49.500;7.764;2023-11-19T07:22:05;98192.16;;;10.36;100.00
7433;BME280;32233;49.500;7.764;2023-11-19T07:24:32;98199.69;;;10.32;100.00
7433;BME280;32233;49.500;7.764;2023-11-19T07:26:59;98206.41;;;10.28;100.00
7433;BME280;32233;49.500;7.764;2023-11-19T07:29:25;98216.38;;;10.26;100.00
7433;BME280;32233;49.500;7.764;2023-11-19T07:31:56;98215.72;;;10.24;100.00
7433;BME280;32233;49.500;7.764;2023-11-19T07:34:24;98220.84;;;10.26;100.00
7433;BME280;32233;49.500;7.764;2023-11-19T07:36:51;98222.84;;;10.24;100.00
7433;BME280;32233;49.500;7.764;2023-11-19T07:39:18;98216.59;;;10.25;100.00
7433;BME280;32233;49.500;7.764;2023-11-19T07:41:45;98231.81;;;10.29;100.00
7433;BME280;32233;49.500;7.764;2023-11-19T07:44:11;98233.22;;;10.38;100.00
7433;BME280;32233;49.500;7.764;2023-11-19T07:46:38;98230.38;;;10.40;100.00
7433;BME280;32233;49.500;7.764;2023-11-19T07:49:05;98235.03;;;10.45;100.00
7433;BME280;32233;49.500;7.764;2023-11-19T07:51:31;98237.06;;;10.56;100.00
7433;BME280;32233;49.500;7.764;2023-11-19T07:53:58;98230.97;;;10.55;100.00
7433;BME280;32233;49.500;7.764;2023-11-19T07:56:24;98221.38;;;10.68;100.00
7433;BME280;32233;49.500;7.764;2023-11-19T07:58:51;98220.19;;;10.57;100.00
7433;BME280;32233;49.500;7.764;2023-11-19T08:01:24;98214.72;;;10.58;100.00
7433;BME280;32233;49.500;7.764;2023-11-19T08:03:58;98225.25;;;10.72;100.00
7433;BME280;32233;49.500;7.764;2023-11-19T08:06:26;98229.31;;;10.74;100.00
7433;BME280;32233;49.500;7.764;2023-11-19T08:08:53;98228.91;;;10.71;100.00
7433;BME280;32233;49.500;7.764;2023-11-19T08:11:19;98229.72;;;10.78;100.00
7433;BME280;32233;49.500;7.764;2023-11-19T08:13:46;98241.06;;;10.85;100.00
7433;BME280;32233;49.500;7.764;2023-11-19T08:16:14;98246.78;;;10.82;100.00
7433;BME280;32233;49.500;7.764;2023-11-19T08:18:43;98241.50;;;10.82;100.00
7433;BME280;32233;49.500;7.764;2023-11-19T08:21:09;98248.00;;;10.79;100.00
7433;BME280;32233;49.500;7.764;2023-11-19T08:23:37;98237.03;;;10.76;100.00
7433;BME280;32233;49.500;7.764;2023-11-19T08:26:05;98247.00;;;10.74;100.00
7433;BME280;32233;49.500;7.764;2023-11-19T08:28:31;98248.81;;;10.73;100.00
7433;BME280;32233;49.500;7.764;2023-11-19T08:31:01;98236.22;;;10.82;100.00
7433;BME280;32233;49.500;7.764;2023-11-19T08:33:27;98242.91;;;10.84;100.00
7433;BME280;32233;49.500;7.764;2023-11-19T08:35:54;98243.91;;;10.90;100.00
7433;BME280;32233;49.500;7.764;2023-11-19T08:38:21;98248.97;;;10.91;100.00
7433;BME280;32233;49.500;7.764;2023-11-19T08:40:51;98252.84;;;10.89;100.00
7433;BME280;32233;49.500;7.764;2023-11-19T08:43:18;98247.53;;;11.02;100.00
7433;BME280;32233;49.500;7.764;2023-11-19T08:45:45;98243.00;;;11.09;100.00
7433;BME280;32233;49.500;7.764;2023-11-19T08:48:11;98242.94;;;11.29;100.00
7433;BME280;32233;49.500;7.764;2023-11-19T08:50:38;98242.28;;;11.34;100.00
7433;BME280;32233;49.500;7.764;2023-11-19T08:53:04;98250.38;;;11.46;100.00
7433;BME280;32233;49.500;7.764;2023-11-19T08:55:33;98246.91;;;11.52;100.00
7433;BME280;32233;49.500;7.764;2023-11-19T08:58:00;98245.09;;;11.46;100.00
7433;BME280;32233;49.500;7.764;2023-11-19T09:00:26;98248.78;;;11.38;100.00
7433;BME280;32233;49.500;7.764;2023-11-19T09:02:53;98254.72;;;11.33;100.00
7433;BME280;32233;49.500;7.764;2023-11-19T09:05:20;98247.97;;;11.37;100.00
7433;BME280;32233;49.500;7.764;2023-11-19T09:07:46;98260.81;;;11.40;100.00
7433;BME280;32233;49.500;7.764;2023-11-19T09:10:13;98254.22;;;11.50;100.00
7433;BME280;32233;49.500;7.764;2023-11-19T09:12:39;98264.41;;;11.53;100.00
7433;BME280;32233;49.500;7.764;2023-11-19T09:15:06;98269.88;;;11.58;100.00
7433;BME280;32233;49.500;7.764;2023-11-19T09:17:33;98259.41;;;11.76;100.00
7433;BME280;32233;49.500;7.764;2023-11-19T09:20:00;98255.81;;;11.96;100.00
7433;BME280;32233;49.500;7.764;2023-11-19T09:22:27;98262.69;;;12.03;100.00
7433;BME280;32233;49.500;7.764;2023-11-19T09:24:53;98260.78;;;12.60;100.00
7433;BME280;32233;49.500;7.764;2023-11-19T09:27:20;98263.41;;;12.42;100.00
7433;BME280;32233;49.500;7.764;2023-11-19T09:29:47;98269.41;;;12.56;100.00
7433;BME280;32233;49.500;7.764;2023-11-19T09:32:16;98270.75;;;13.57;100.00
7433;BME280;32233;49.500;7.764;2023-11-19T09:34:42;98263.47;;;14.48;100.00
7433;BME280;32233;49.500;7.764;2023-11-19T09:37:09;98262.88;;;14.46;100.00
7433;BME280;32233;49.500;7.764;2023-11-19T09:39:38;98276.41;;;13.91;100.00
7433;BME280;32233;49.500;7.764;2023-11-19T09:44:01;98279.47;;;12.91;100.00
7433;BME280;32233;49.500;7.764;2023-11-19T09:46:28;98272.47;;;12.53;100.00
7433;BME280;32233;49.500;7.764;2023-11-19T09:48:57;98289.31;;;12.40;100.00
7433;BME280;32233;49.500;7.764;2023-11-19T09:51:25;98276.81;;;13.09;100.00
7433;BME280;32233;49.500;7.764;2023-11-19T09:53:52;98271.81;;;13.98;100.00
7433;BME280;32233;49.500;7.764;2023-11-19T09:56:19;98254.53;;;15.13;100.00
7433;BME280;32233;49.500;7.764;2023-11-19T09:58:46;98245.50;;;15.42;100.00
7433;BME280;32233;49.500;7.764;2023-11-19T10:01:13;98252.38;;;15.95;100.00
7433;BME280;32233;49.500;7.764;2023-11-19T10:03:46;98240.44;;;16.31;100.00
7433;BME280;32233;49.500;7.764;2023-11-19T10:06:15;98245.22;;;15.67;100.00
7433;BME280;32233;49.500;7.764;2023-11-19T10:08:42;98245.03;;;15.05;100.00
7433;BME280;32233;49.500;7.764;2023-11-19T10:11:09;98248.28;;;14.36;100.00
7433;BME280;32233;49.500;7.764;2023-11-19T10:13:40;98234.81;;;14.50;100.00
7433;BME280;32233;49.500;7.764;2023-11-19T10:16:09;98245.41;;;13.73;100.00
7433;BME280;32233;49.500;7.764;2023-11-19T10:18:38;98243.00;;;14.25;100.00
7433;BME280;32233;49.500;7.764;2023-11-19T10:21:12;98241.44;;;13.94;100.00
7433;BME280;32233;49.500;7.764;2023-11-19T10:23:54;98245.72;;;12.98;100.00
7433;BME280;32233;49.500;7.764;2023-11-19T10:26:23;98251.03;;;12.79;100.00
7433;BME280;32233;49.500;7.764;2023-11-19T10:28:50;98240.56;;;12.66;100.00
7433;BME280;32233;49.500;7.764;2023-11-19T10:31:18;98244.44;;;12.63;100.00
7433;BME280;32233;49.500;7.764;2023-11-19T10:33:45;98247.00;;;12.52;100.00
7433;BME280;32233;49.500;7.764;2023-11-19T10:36:12;98251.81;;;12.36;100.00
7433;BME280;32233;49.500;7.764;2023-11-19T10:38:39;98248.63;;;12.28;100.00
7433;BME280;32233;49.500;7.764;2023-11-19T10:41:07;98250.28;;;12.29;100.00
7433;BME280;32233;49.500;7.764;2023-11-19T10:43:43;98242.78;;;12.44;100.00
7433;BME280;32233;49.500;7.764;2023-11-19T10:46:22;98250.09;;;12.49;100.00
7433;BME280;32233;49.500;7.764;2023-11-19T10:48:52;98241.34;;;12.23;100.00
7433;BME280;32233;49.500;7.764;2023-11-19T10:51:19;98248.38;;;12.11;100.00
7433;BME280;32233;49.500;7.764;2023-11-19T10:53:51;98241.78;;;12.20;100.00
7433;BME280;32233;49.500;7.764;2023-11-19T10:56:20;98242.41;;;12.15;100.00
7433;BME280;32233;49.500;7.764;2023-11-19T10:58:53;98246.75;;;12.10;100.00
7433;BME280;32233;49.500;7.764;2023-11-19T11:01:23;98243.88;;;12.11;100.00
7433;BME280;32233;49.500;7.764;2023-11-19T11:03:52;98242.06;;;13.77;100.00
7433;BME280;32233;49.500;7.764;2023-11-19T11:06:21;98237.31;;;13.01;100.00
7433;BME280;32233;49.500;7.764;2023-11-19T11:08:49;98236.34;;;13.13;100.00
7433;BME280;32233;49.500;7.764;2023-11-19T11:11:16;98231.13;;;13.44;100.00
7433;BME280;32233;49.500;7.764;2023-11-19T11:13:53;98238.81;;;12.78;100.00
7433;BME280;32233;49.500;7.764;2023-11-19T11:16:22;98234.22;;;12.67;100.00
7433;BME280;32233;49.500;7.764;2023-11-19T11:18:49;98232.22;;;12.62;100.00
7433;BME280;32233;49.500;7.764;2023-11-19T11:21:20;98230.91;;;12.53;100.00
7433;BME280;32233;49.500;7.764;2023-11-19T11:24:17;98225.16;;;13.11;100.00
7433;BME280;32233;49.500;7.764;2023-11-19T11:30:20;98201.56;;;12.85;100.00
7433;BME280;32233;49.500;7.764;2023-11-19T11:38:22;98194.63;;;13.51;100.00
7433;BME280;32233;49.500;7.764;2023-11-19T11:41:15;98183.56;;;13.54;100.00
7433;BME280;32233;49.500;7.764;2023-11-19T11:43:50;98194.25;;;13.35;100.00
7433;BME280;32233;49.500;7.764;2023-11-19T11:49:01;98204.44;;;13.02;100.00
7433;BME280;32233;49.500;7.764;2023-11-19T11:54:30;98202.09;;;12.75;100.00
7433;BME280;32233;49.500;7.764;2023-11-19T12:02:09;98206.47;;;12.70;100.00
7433;BME280;32233;49.500;7.764;2023-11-19T12:04:36;98211.00;;;12.81;100.00
7433;BME280;32233;49.500;7.764;2023-11-19T12:07:05;98205.28;;;12.84;100.00
7433;BME280;32233;49.500;7.764;2023-11-19T12:09:33;98200.78;;;12.84;100.00
7433;BME280;32233;49.500;7.764;2023-11-19T12:12:17;98203.66;;;12.83;100.00
7433;BME280;32233;49.500;7.764;2023-11-19T12:17:36;98195.25;;;12.68;100.00
7433;BME280;32233;49.500;7.764;2023-11-19T12:20:05;98191.13;;;12.53;100.00
7433;BME280;32233;49.500;7.764;2023-11-19T12:22:37;98189.06;;;12.37;100.00
7433;BME280;32233;49.500;7.764;2023-11-19T12:25:06;98183.97;;;12.10;100.00
7433;BME280;32233;49.500;7.764;2023-11-19T12:27:33;98173.78;;;11.89;100.00
7433;BME280;32233;49.500;7.764;2023-11-19T12:30:03;98174.34;;;11.91;100.00
7433;BME280;32233;49.500;7.764;2023-11-19T12:32:44;98166.88;;;11.88;100.00
7433;BME280;32233;49.500;7.764;2023-11-19T12:35:12;98169.88;;;12.17;100.00
7433;BME280;32233;49.500;7.764;2023-11-19T12:37:43;98167.75;;;12.25;100.00
7433;BME280;32233;49.500;7.764;2023-11-19T12:40:20;98160.19;;;12.29;100.00
7433;BME280;32233;49.500;7.764;2023-11-19T12:42:51;98153.56;;;12.38;100.00
7433;BME280;32233;49.500;7.764;2023-11-19T12:45:18;98150.75;;;12.33;100.00
7433;BME280;32233;49.500;7.764;2023-11-19T12:47:47;98152.34;;;12.15;100.00
7433;BME280;32233;49.500;7.764;2023-11-19T12:50:16;98148.53;;;11.86;100.00
7433;BME280;32233;49.500;7.764;2023-11-19T12:52:58;98145.91;;;11.80;100.00
7433;BME280;32233;49.500;7.764;2023-11-19T12:55:29;98137.97;;;11.80;100.00
7433;BME280;32233;49.500;7.764;2023-11-19T12:57:57;98137.09;;;11.61;100.00
7433;BME280;32233;49.500;7.764;2023-11-19T13:00:26;98152.81;;;11.56;100.00
7433;BME280;32233;49.500;7.764;2023-11-19T13:02:55;98136.78;;;11.76;100.00
7433;BME280;32233;49.500;7.764;2023-11-19T13:07:49;98143.72;;;11.70;100.00
7433;BME280;32233;49.500;7.764;2023-11-19T13:10:16;98146.06;;;11.60;100.00
7433;BME280;32233;49.500;7.764;2023-11-19T13:13:06;98137.50;;;11.58;100.00
7433;BME280;32233;49.500;7.764;2023-11-19T13:15:33;98140.38;;;11.56;100.00
7433;BME280;32233;49.500;7.764;2023-11-19T13:18:01;98131.53;;;11.69;100.00
7433;BME280;32233;49.500;7.764;2023-11-19T13:20:30;98140.44;;;11.75;100.00
7433;BME280;32233;49.500;7.764;2023-11-19T13:23:01;98139.34;;;11.89;100.00
7433;BME280;32233;49.500;7.764;2023-11-19T13:25:28;98146.63;;;11.94;100.00
7433;BME280;32233;49.500;7.764;2023-11-19T13:27:55;98141.06;;;12.02;100.00
7433;BME280;32233;49.500;7.764;2023-11-19T13:30:23;98132.69;;;12.05;100.00
7433;BME280;32233;49.500;7.764;2023-11-19T13:32:53;98135.16;;;12.00;100.00
7433;BME280;32233;49.500;7.764;2023-11-19T13:35:22;98130.69;;;12.00;100.00
7433;BME280;32233;49.500;7.764;2023-11-19T13:37:49;98135.44;;;11.92;100.00
7433;BME280;32233;49.500;7.764;2023-11-19T13:40:16;98126.94;;;11.83;100.00